sensor_id;sensor_type;location;lat;lon;timestamp;P1;durP1;ratioP1;P2;durP2;ratioP2
70075;SDS011;63241;51.056;3.698;2023-06-14T00:02:10;11.95;;;6.03;;
70075;SDS011;63241;51.056;3.698;2023-06-14T00:04:56;8.18;;;5.12;;
70075;SDS011;63241;51.056;3.698;2023-06-14T00:07:45;10.32;;;5.08;;
70075;SDS011;63241;51.056;3.698;2023-06-14T00:10:55;11.57;;;5.20;;
70075;SDS011;63241;51.056;3.698;2023-06-14T00:13:44;8.10;;;4.80;;
70075;SDS011;63241;51.056;3.698;2023-06-14T00:16:30;11.53;;;5.17;;
70075;SDS011;63241;51.056;3.698;2023-06-14T00:19:18;11.93;;;5.85;;
70075;SDS011;63241;51.056;3.698;2023-06-14T00:25:47;10.82;;;5.35;;
70075;SDS011;63241;51.056;3.698;2023-06-14T00:28:34;6.78;;;4.42;;
70075;SDS011;63241;51.056;3.698;2023-06-14T00:31:20;13.55;;;5.20;;
70075;SDS011;63241;51.056;3.698;2023-06-14T00:34:06;10.40;;;5.45;;
70075;SDS011;63241;51.056;3.698;2023-06-14T00:40:35;11.63;;;5.85;;
70075;SDS011;63241;51.056;3.698;2023-06-14T00:43:21;14.83;;;5.87;;
70075;SDS011;63241;51.056;3.698;2023-06-14T00:46:07;9.95;;;5.22;;
70075;SDS011;63241;51.056;3.698;2023-06-14T00:55:03;10.48;;;5.37;;
70075;SDS011;63241;51.056;3.698;2023-06-14T00:57:50;13.65;;;5.20;;
70075;SDS011;63241;51.056;3.698;2023-06-14T01:00:36;9.15;;;5.25;;
70075;SDS011;63241;51.056;3.698;2023-06-14T01:10:35;9.08;;;5.67;;
70075;SDS011;63241;51.056;3.698;2023-06-14T01:22:18;10.50;;;5.97;;
70075;SDS011;63241;51.056;3.698;2023-06-14T01:25:04;10.45;;;5.78;;
70075;SDS011;63241;51.056;3.698;2023-06-14T01:27:57;15.23;;;6.00;;
70075;SDS011;63241;51.056;3.698;2023-06-14T01:34:23;11.18;;;6.35;;
70075;SDS011;63241;51.056;3.698;2023-06-14T01:37:11;14.00;;;6.37;;
70075;SDS011;63241;51.056;3.698;2023-06-14T01:39:59;13.53;;;6.12;;
70075;SDS011;63241;51.056;3.698;2023-06-14T01:49:36;15.23;;;7.22;;
70075;SDS011;63241;51.056;3.698;2023-06-14T01:55:29;10.18;;;6.78;;
70075;SDS011;63241;51.056;3.698;2023-06-14T01:58:17;10.05;;;6.60;;
70075;SDS011;63241;51.056;3.698;2023-06-14T02:01:03;10.00;;;6.20;;
70075;SDS011;63241;51.056;3.698;2023-06-14T02:07:33;13.05;;;6.53;;
70075;SDS011;63241;51.056;3.698;2023-06-14T02:10:21;15.55;;;6.87;;
70075;SDS011;63241;51.056;3.698;2023-06-14T02:13:07;10.30;;;6.97;;
70075;SDS011;63241;51.056;3.698;2023-06-14T02:22:30;12.18;;;7.08;;
70075;SDS011;63241;51.056;3.698;2023-06-14T02:25:16;9.50;;;6.53;;
70075;SDS011;63241;51.056;3.698;2023-06-14T02:28:03;12.30;;;6.80;;
70075;SDS011;63241;51.056;3.698;2023-06-14T02:37:02;11.53;;;6.60;;
70075;SDS011;63241;51.056;3.698;2023-06-14T02:39:48;12.58;;;6.28;;
70075;SDS011;63241;51.056;3.698;2023-06-14T02:42:36;7.83;;;6.00;;
70075;SDS011;63241;51.056;3.698;2023-06-14T02:45:29;9.80;;;6.40;;
70075;SDS011;63241;51.056;3.698;2023-06-14T02:48:36;8.23;;;6.25;;
70075;SDS011;63241;51.056;3.698;2023-06-14T02:51:22;11.68;;;6.45;;
70075;SDS011;63241;51.056;3.698;2023-06-14T02:54:09;10.80;;;6.95;;
70075;SDS011;63241;51.056;3.698;2023-06-14T03:03:28;12.37;;;5.90;;
70075;SDS011;63241;51.056;3.698;2023-06-14T03:06:15;10.78;;;6.45;;
70075;SDS011;63241;51.056;3.698;2023-06-14T03:09:01;11.30;;;6.87;;
70075;SDS011;63241;51.056;3.698;2023-06-14T03:15:50;11.75;;;6.20;;
70075;SDS011;63241;51.056;3.698;2023-06-14T03:18:36;8.95;;;6.05;;
70075;SDS011;63241;51.056;3.698;2023-06-14T03:21:23;11.97;;;6.28;;
70075;SDS011;63241;51.056;3.698;2023-06-14T03:30:46;10.13;;;6.60;;
70075;SDS011;63241;51.056;3.698;2023-06-14T03:33:32;11.25;;;6.35;;
70075;SDS011;63241;51.056;3.698;2023-06-14T03:36:19;9.95;;;5.97;;
70075;SDS011;63241;51.056;3.698;2023-06-14T03:45:43;12.33;;;6.03;;
70075;SDS011;63241;51.056;3.698;2023-06-14T03:48:29;11.30;;;6.70;;
70075;SDS011;63241;51.056;3.698;2023-06-14T03:57:58;10.72;;;6.12;;
70075;SDS011;63241;51.056;3.698;2023-06-14T04:00:44;11.40;;;5.58;;
70075;SDS011;63241;51.056;3.698;2023-06-14T04:03:30;9.88;;;6.10;;
70075;SDS011;63241;51.056;3.698;2023-06-14T04:12:30;12.85;;;6.08;;
70075;SDS011;63241;51.056;3.698;2023-06-14T04:15:17;10.55;;;5.72;;
70075;SDS011;63241;51.056;3.698;2023-06-14T04:24:57;12.20;;;5.78;;
70075;SDS011;63241;51.056;3.698;2023-06-14T04:27:43;9.83;;;6.08;;
70075;SDS011;63241;51.056;3.698;2023-06-14T04:30:31;10.05;;;5.90;;
70075;SDS011;63241;51.056;3.698;2023-06-14T04:40:01;10.58;;;5.65;;
70075;SDS011;63241;51.056;3.698;2023-06-14T04:43:01;10.25;;;5.75;;
70075;SDS011;63241;51.056;3.698;2023-06-14T06:09:00;12.33;;;6.90;;
70075;SDS011;63241;51.056;3.698;2023-06-14T06:11:49;11.00;;;6.62;;
70075;SDS011;63241;51.056;3.698;2023-06-14T06:14:53;12.37;;;7.28;;
70075;SDS011;63241;51.056;3.698;2023-06-14T06:17:39;8.83;;;6.35;;
70075;SDS011;63241;51.056;3.698;2023-06-14T06:20:26;12.35;;;6.83;;
70075;SDS011;63241;51.056;3.698;2023-06-14T06:26:54;10.90;;;6.95;;
70075;SDS011;63241;51.056;3.698;2023-06-14T06:29:42;10.13;;;7.80;;
70075;SDS011;63241;51.056;3.698;2023-06-14T06:32:28;11.88;;;6.75;;
70075;SDS011;63241;51.056;3.698;2023-06-14T06:38:39;12.90;;;7.10;;
70075;SDS011;63241;51.056;3.698;2023-06-14T06:41:26;12.60;;;7.92;;
70075;SDS011;63241;51.056;3.698;2023-06-14T06:44:12;10.13;;;7.17;;
70075;SDS011;63241;51.056;3.698;2023-06-14T06:46:59;9.18;;;7.35;;
70075;SDS011;63241;51.056;3.698;2023-06-14T06:49:48;13.68;;;6.83;;
70075;SDS011;63241;51.056;3.698;2023-06-14T06:52:44;10.38;;;7.17;;
70075;SDS011;63241;51.056;3.698;2023-06-14T06:58:19;10.45;;;6.70;;
70075;SDS011;63241;51.056;3.698;2023-06-14T07:01:06;13.75;;;7.25;;
70075;SDS011;63241;51.056;3.698;2023-06-14T07:07:04;9.43;;;6.70;;
70075;SDS011;63241;51.056;3.698;2023-06-14T07:09:51;12.58;;;7.25;;
70075;SDS011;63241;51.056;3.698;2023-06-14T07:12:37;12.18;;;7.30;;
70075;SDS011;63241;51.056;3.698;2023-06-14T07:15:25;38.55;;;9.05;;
70075;SDS011;63241;51.056;3.698;2023-06-14T07:18:30;19.95;;;8.15;;
70075;SDS011;63241;51.056;3.698;2023-06-14T07:21:26;26.57;;;8.73;;
70075;SDS011;63241;51.056;3.698;2023-06-14T07:24:13;27.02;;;7.83;;
70075;SDS011;63241;51.056;3.698;2023-06-14T07:27:00;9.20;;;7.10;;
70075;SDS011;63241;51.056;3.698;2023-06-14T07:29:55;10.58;;;7.03;;
70075;SDS011;63241;51.056;3.698;2023-06-14T07:35:59;12.63;;;8.10;;
70075;SDS011;63241;51.056;3.698;2023-06-14T07:38:45;15.72;;;9.10;;
70075;SDS011;63241;51.056;3.698;2023-06-14T07:41:32;10.98;;;7.62;;
70075;SDS011;63241;51.056;3.698;2023-06-14T07:47:47;13.08;;;8.25;;
70075;SDS011;63241;51.056;3.698;2023-06-14T07:50:37;12.68;;;9.28;;
70075;SDS011;63241;51.056;3.698;2023-06-14T07:53:24;10.75;;;8.30;;
70075;SDS011;63241;51.056;3.698;2023-06-14T07:56:13;12.93;;;9.35;;
70075;SDS011;63241;51.056;3.698;2023-06-14T08:02:20;10.40;;;9.45;;
70075;SDS011;63241;51.056;3.698;2023-06-14T08:05:06;12.07;;;10.60;;
70075;SDS011;63241;51.056;3.698;2023-06-14T08:07:54;16.48;;;11.53;;
70075;SDS011;63241;51.056;3.698;2023-06-14T08:10:43;15.53;;;12.35;;
70075;SDS011;63241;51.056;3.698;2023-06-14T08:17:05;18.52;;;13.20;;
70075;SDS011;63241;51.056;3.698;2023-06-14T08:19:51;17.80;;;13.10;;
70075;SDS011;63241;51.056;3.698;2023-06-14T08:22:39;16.25;;;13.50;;
70075;SDS011;63241;51.056;3.698;2023-06-14T08:25:30;18.80;;;14.68;;
70075;SDS011;63241;51.056;3.698;2023-06-14T08:28:25;15.63;;;13.95;;
70075;SDS011;63241;51.056;3.698;2023-06-14T08:31:19;17.73;;;16.30;;
70075;SDS011;63241;51.056;3.698;2023-06-14T08:34:07;17.27;;;15.90;;
70075;SDS011;63241;51.056;3.698;2023-06-14T08:36:53;21.57;;;16.17;;
70075;SDS011;63241;51.056;3.698;2023-06-14T08:42:57;19.80;;;18.02;;
70075;SDS011;63241;51.056;3.698;2023-06-14T08:45:45;19.32;;;17.60;;
70075;SDS011;63241;51.056;3.698;2023-06-14T08:48:35;21.20;;;19.37;;
70075;SDS011;63241;51.056;3.698;2023-06-14T08:54:13;20.95;;;19.30;;
70075;SDS011;63241;51.056;3.698;2023-06-14T08:57:10;22.52;;;20.57;;
70075;SDS011;63241;51.056;3.698;2023-06-14T09:00:00;19.52;;;17.75;;
70075;SDS011;63241;51.056;3.698;2023-06-14T09:02:51;21.52;;;19.92;;
70075;SDS011;63241;51.056;3.698;2023-06-14T09:05:48;20.35;;;18.52;;
70075;SDS011;63241;51.056;3.698;2023-06-14T09:08:43;19.27;;;17.65;;
70075;SDS011;63241;51.056;3.698;2023-06-14T09:11:34;18.05;;;16.45;;
70075;SDS011;63241;51.056;3.698;2023-06-14T09:14:23;21.25;;;19.55;;
70075;SDS011;63241;51.056;3.698;2023-06-14T09:17:12;21.33;;;19.70;;
70075;SDS011;63241;51.056;3.698;2023-06-14T09:19:59;23.70;;;22.07;;
70075;SDS011;63241;51.056;3.698;2023-06-14T09:23:10;22.60;;;20.77;;
70075;SDS011;63241;51.056;3.698;2023-06-14T09:25:59;23.95;;;22.30;;
70075;SDS011;63241;51.056;3.698;2023-06-14T09:28:46;22.35;;;20.97;;
70075;SDS011;63241;51.056;3.698;2023-06-14T09:31:34;24.93;;;23.03;;
70075;SDS011;63241;51.056;3.698;2023-06-14T09:34:24;22.05;;;19.87;;
70075;SDS011;63241;51.056;3.698;2023-06-14T09:37:31;22.15;;;20.45;;
70075;SDS011;63241;51.056;3.698;2023-06-14T09:40:23;20.60;;;18.85;;
70075;SDS011;63241;51.056;3.698;2023-06-14T09:43:13;22.45;;;20.75;;
70075;SDS011;63241;51.056;3.698;2023-06-14T09:46:02;21.65;;;19.60;;
70075;SDS011;63241;51.056;3.698;2023-06-14T09:48:54;22.82;;;21.27;;
70075;SDS011;63241;51.056;3.698;2023-06-14T09:51:53;20.55;;;19.02;;
70075;SDS011;63241;51.056;3.698;2023-06-14T09:54:46;20.68;;;19.27;;
70075;SDS011;63241;51.056;3.698;2023-06-14T09:57:34;20.80;;;18.80;;
70075;SDS011;63241;51.056;3.698;2023-06-14T10:00:23;18.42;;;17.32;;
70075;SDS011;63241;51.056;3.698;2023-06-14T10:03:28;18.65;;;17.15;;
70075;SDS011;63241;51.056;3.698;2023-06-14T10:06:17;17.40;;;16.10;;
70075;SDS011;63241;51.056;3.698;2023-06-14T10:09:06;15.32;;;14.25;;
70075;SDS011;63241;51.056;3.698;2023-06-14T10:11:53;15.48;;;14.15;;
70075;SDS011;63241;51.056;3.698;2023-06-14T10:24:54;14.15;;;12.80;;
70075;SDS011;63241;51.056;3.698;2023-06-14T10:31:23;17.15;;;15.80;;
70075;SDS011;63241;51.056;3.698;2023-06-14T10:34:27;19.87;;;18.35;;
70075;SDS011;63241;51.056;3.698;2023-06-14T10:37:13;20.12;;;18.20;;
70075;SDS011;63241;51.056;3.698;2023-06-14T10:40:02;20.35;;;19.12;;
70075;SDS011;63241;51.056;3.698;2023-06-14T10:42:59;20.60;;;19.23;;
70075;SDS011;63241;51.056;3.698;2023-06-14T10:49:08;18.82;;;17.50;;
70075;SDS011;63241;51.056;3.698;2023-06-14T10:51:55;18.67;;;17.05;;
70075;SDS011;63241;51.056;3.698;2023-06-14T10:58:20;17.65;;;16.17;;
70075;SDS011;63241;51.056;3.698;2023-06-14T11:01:09;16.20;;;14.75;;
70075;SDS011;63241;51.056;3.698;2023-06-14T11:03:56;15.90;;;14.60;;
70075;SDS011;63241;51.056;3.698;2023-06-14T11:06:48;14.87;;;13.85;;
70075;SDS011;63241;51.056;3.698;2023-06-14T11:12:41;16.10;;;14.70;;
70075;SDS011;63241;51.056;3.698;2023-06-14T11:15:37;17.87;;;16.55;;
70075;SDS011;63241;51.056;3.698;2023-06-14T11:18:38;17.07;;;15.85;;
70075;SDS011;63241;51.056;3.698;2023-06-14T11:24:53;16.82;;;15.55;;
70075;SDS011;63241;51.056;3.698;2023-06-14T11:27:45;14.23;;;13.08;;
70075;SDS011;63241;51.056;3.698;2023-06-14T11:30:33;15.03;;;13.70;;
70075;SDS011;63241;51.056;3.698;2023-06-14T11:33:19;14.35;;;13.20;;
70075;SDS011;63241;51.056;3.698;2023-06-14T11:39:30;14.30;;;13.08;;
70075;SDS011;63241;51.056;3.698;2023-06-14T11:42:18;13.88;;;12.45;;
70075;SDS011;63241;51.056;3.698;2023-06-14T11:45:08;13.78;;;12.37;;
70075;SDS011;63241;51.056;3.698;2023-06-14T11:47:57;16.90;;;15.38;;
70075;SDS011;63241;51.056;3.698;2023-06-14T11:50:55;14.43;;;13.20;;
70075;SDS011;63241;51.056;3.698;2023-06-14T11:54:06;16.12;;;14.60;;
70075;SDS011;63241;51.056;3.698;2023-06-14T11:56:56;20.00;;;14.40;;
70075;SDS011;63241;51.056;3.698;2023-06-14T11:59:43;15.85;;;14.47;;
70075;SDS011;63241;51.056;3.698;2023-06-14T12:05:46;16.37;;;14.95;;
70075;SDS011;63241;51.056;3.698;2023-06-14T12:08:36;15.45;;;14.25;;
70075;SDS011;63241;51.056;3.698;2023-06-14T12:11:32;16.45;;;15.23;;
70075;SDS011;63241;51.056;3.698;2023-06-14T12:14:20;15.75;;;14.55;;
70075;SDS011;63241;51.056;3.698;2023-06-14T12:17:10;16.17;;;14.78;;
70075;SDS011;63241;51.056;3.698;2023-06-14T12:20:08;18.65;;;17.35;;
70075;SDS011;63241;51.056;3.698;2023-06-14T12:23:20;18.50;;;16.93;;
70075;SDS011;63241;51.056;3.698;2023-06-14T12:26:06;17.15;;;15.63;;
70075;SDS011;63241;51.056;3.698;2023-06-14T12:28:53;15.08;;;13.88;;
70075;SDS011;63241;51.056;3.698;2023-06-14T12:31:40;13.90;;;13.00;;
70075;SDS011;63241;51.056;3.698;2023-06-14T12:37:40;12.35;;;11.10;;
70075;SDS011;63241;51.056;3.698;2023-06-14T12:40:26;12.15;;;10.98;;
70075;SDS011;63241;51.056;3.698;2023-06-14T12:43:14;12.63;;;11.20;;
70075;SDS011;63241;51.056;3.698;2023-06-14T12:46:07;13.38;;;11.55;;
70075;SDS011;63241;51.056;3.698;2023-06-14T12:48:59;13.15;;;11.73;;
70075;SDS011;63241;51.056;3.698;2023-06-14T12:51:46;12.30;;;11.12;;
70075;SDS011;63241;51.056;3.698;2023-06-14T12:54:32;12.78;;;11.12;;
70075;SDS011;63241;51.056;3.698;2023-06-14T13:04:09;11.12;;;9.60;;
70075;SDS011;63241;51.056;3.698;2023-06-14T13:06:55;10.35;;;8.88;;
70075;SDS011;63241;51.056;3.698;2023-06-14T13:09:41;13.60;;;9.23;;
70075;SDS011;63241;51.056;3.698;2023-06-14T13:12:30;11.73;;;9.23;;
70075;SDS011;63241;51.056;3.698;2023-06-14T13:18:21;11.35;;;8.85;;
70075;SDS011;63241;51.056;3.698;2023-06-14T13:21:08;12.43;;;8.03;;
70075;SDS011;63241;51.056;3.698;2023-06-14T13:23:54;15.08;;;8.50;;
70075;SDS011;63241;51.056;3.698;2023-06-14T13:30:14;8.48;;;6.65;;
70075;SDS011;63241;51.056;3.698;2023-06-14T13:33:00;9.33;;;6.22;;
70075;SDS011;63241;51.056;3.698;2023-06-14T13:35:46;6.62;;;5.60;;
70075;SDS011;63241;51.056;3.698;2023-06-14T13:45:15;8.23;;;5.25;;
70075;SDS011;63241;51.056;3.698;2023-06-14T13:48:02;10.95;;;5.00;;
70075;SDS011;63241;51.056;3.698;2023-06-14T13:50:51;11.78;;;4.75;;
70075;SDS011;63241;51.056;3.698;2023-06-14T13:57:18;10.63;;;4.97;;
70075;SDS011;63241;51.056;3.698;2023-06-14T14:00:05;14.63;;;4.97;;
70075;SDS011;63241;51.056;3.698;2023-06-14T14:02:53;9.78;;;4.85;;
70075;SDS011;63241;51.056;3.698;2023-06-14T14:12:26;9.88;;;4.87;;
70075;SDS011;63241;51.056;3.698;2023-06-14T14:15:13;10.32;;;4.35;;
70075;SDS011;63241;51.056;3.698;2023-06-14T14:17:59;7.20;;;4.53;;
70075;SDS011;63241;51.056;3.698;2023-06-14T14:38:57;8.85;;;3.92;;
70075;SDS011;63241;51.056;3.698;2023-06-14T14:41:44;10.20;;;4.20;;
70075;SDS011;63241;51.056;3.698;2023-06-14T14:44:30;8.03;;;3.52;;
70075;SDS011;63241;51.056;3.698;2023-06-14T14:54:07;6.80;;;3.50;;
70075;SDS011;63241;51.056;3.698;2023-06-14T14:56:53;5.33;;;3.52;;
70075;SDS011;63241;51.056;3.698;2023-06-14T15:06:28;6.65;;;3.25;;
70075;SDS011;63241;51.056;3.698;2023-06-14T15:09:15;6.58;;;3.10;;
70075;SDS011;63241;51.056;3.698;2023-06-14T15:12:01;7.55;;;3.05;;
70075;SDS011;63241;51.056;3.698;2023-06-14T15:21:12;6.97;;;3.70;;
70075;SDS011;63241;51.056;3.698;2023-06-14T15:24:25;5.70;;;2.77;;
70075;SDS011;63241;51.056;3.698;2023-06-14T15:34:05;6.10;;;2.30;;
70075;SDS011;63241;51.056;3.698;2023-06-14T15:36:52;6.08;;;2.35;;
70075;SDS011;63241;51.056;3.698;2023-06-14T15:39:38;5.50;;;2.50;;
70075;SDS011;63241;51.056;3.698;2023-06-14T16:01:34;3.67;;;2.00;;
70075;SDS011;63241;51.056;3.698;2023-06-14T16:04:20;4.97;;;2.12;;
70075;SDS011;63241;51.056;3.698;2023-06-14T16:07:06;3.90;;;2.20;;
70075;SDS011;63241;51.056;3.698;2023-06-14T16:10:07;3.42;;;1.95;;
70075;SDS011;63241;51.056;3.698;2023-06-14T16:13:14;7.47;;;1.85;;
70075;SDS011;63241;51.056;3.698;2023-06-14T16:16:01;4.78;;;1.98;;
70075;SDS011;63241;51.056;3.698;2023-06-14T16:18:47;7.15;;;2.45;;
70075;SDS011;63241;51.056;3.698;2023-06-14T16:28:24;5.53;;;2.12;;
70075;SDS011;63241;51.056;3.698;2023-06-14T16:31:11;13.03;;;2.85;;
70075;SDS011;63241;51.056;3.698;2023-06-14T16:34:02;5.03;;;2.42;;
70075;SDS011;63241;51.056;3.698;2023-06-14T16:43:27;6.37;;;2.30;;
70075;SDS011;63241;51.056;3.698;2023-06-14T16:46:13;6.42;;;2.20;;
70075;SDS011;63241;51.056;3.698;2023-06-14T16:49:18;3.60;;;2.00;;
70075;SDS011;63241;51.056;3.698;2023-06-14T16:55:15;6.40;;;2.62;;
70075;SDS011;63241;51.056;3.698;2023-06-14T16:58:01;6.65;;;2.50;;
70075;SDS011;63241;51.056;3.698;2023-06-14T17:00:48;6.45;;;2.45;;
70075;SDS011;63241;51.056;3.698;2023-06-14T17:03:39;5.65;;;2.62;;
70075;SDS011;63241;51.056;3.698;2023-06-14T17:06:38;7.95;;;2.30;;
70075;SDS011;63241;51.056;3.698;2023-06-14T17:09:28;8.35;;;3.02;;
70075;SDS011;63241;51.056;3.698;2023-06-14T17:12:15;4.87;;;2.40;;
70075;SDS011;63241;51.056;3.698;2023-06-14T17:15:02;10.63;;;2.77;;
70075;SDS011;63241;51.056;3.698;2023-06-14T17:17:57;7.37;;;3.10;;
70075;SDS011;63241;51.056;3.698;2023-06-14T17:21:21;7.78;;;2.70;;
70075;SDS011;63241;51.056;3.698;2023-06-14T17:24:08;11.83;;;3.17;;
70075;SDS011;63241;51.056;3.698;2023-06-14T17:29:57;9.65;;;3.12;;
70075;SDS011;63241;51.056;3.698;2023-06-14T17:32:43;5.92;;;3.00;;
70075;SDS011;63241;51.056;3.698;2023-06-14T17:35:30;3.87;;;2.40;;
70075;SDS011;63241;51.056;3.698;2023-06-14T17:44:52;6.72;;;2.50;;
70075;SDS011;63241;51.056;3.698;2023-06-14T17:47:40;11.45;;;2.92;;
70075;SDS011;63241;51.056;3.698;2023-06-14T17:50:34;8.50;;;3.45;;
70075;SDS011;63241;51.056;3.698;2023-06-14T17:53:38;6.60;;;3.22;;
70075;SDS011;63241;51.056;3.698;2023-06-14T17:56:29;6.15;;;2.40;;
70075;SDS011;63241;51.056;3.698;2023-06-14T17:59:16;4.20;;;2.67;;
70075;SDS011;63241;51.056;3.698;2023-06-14T18:02:02;9.98;;;3.33;;
70075;SDS011;63241;51.056;3.698;2023-06-14T18:04:59;9.35;;;2.85;;
70075;SDS011;63241;51.056;3.698;2023-06-14T18:10:59;6.17;;;2.22;;
70075;SDS011;63241;51.056;3.698;2023-06-14T18:13:45;8.33;;;2.85;;
70075;SDS011;63241;51.056;3.698;2023-06-14T18:16:32;3.98;;;2.05;;
70075;SDS011;63241;51.056;3.698;2023-06-14T18:22:50;4.22;;;2.67;;
70075;SDS011;63241;51.056;3.698;2023-06-14T18:25:38;10.55;;;3.92;;
70075;SDS011;63241;51.056;3.698;2023-06-14T18:28:24;7.05;;;3.90;;
70075;SDS011;63241;51.056;3.698;2023-06-14T18:31:28;7.65;;;2.72;;
70075;SDS011;63241;51.056;3.698;2023-06-14T18:34:30;4.78;;;3.20;;
70075;SDS011;63241;51.056;3.698;2023-06-14T18:42:48;6.78;;;3.37;;
70075;SDS011;63241;51.056;3.698;2023-06-14T18:45:36;8.20;;;2.30;;
70075;SDS011;63241;51.056;3.698;2023-06-14T18:52:07;6.72;;;2.85;;
70075;SDS011;63241;51.056;3.698;2023-06-14T18:54:54;7.65;;;2.60;;
70075;SDS011;63241;51.056;3.698;2023-06-14T19:01:14;11.38;;;3.42;;
70075;SDS011;63241;51.056;3.698;2023-06-14T19:04:18;6.55;;;3.00;;
70075;SDS011;63241;51.056;3.698;2023-06-14T19:07:04;12.95;;;3.40;;
70075;SDS011;63241;51.056;3.698;2023-06-14T19:09:52;8.48;;;3.92;;
70075;SDS011;63241;51.056;3.698;2023-06-14T19:19:36;8.85;;;2.58;;
70075;SDS011;63241;51.056;3.698;2023-06-14T19:22:22;6.78;;;2.58;;
70075;SDS011;63241;51.056;3.698;2023-06-14T19:25:25;5.78;;;2.40;;
70075;SDS011;63241;51.056;3.698;2023-06-14T19:28:15;7.87;;;2.27;;
70075;SDS011;63241;51.056;3.698;2023-06-14T19:31:17;5.85;;;2.10;;
70075;SDS011;63241;51.056;3.698;2023-06-14T19:34:04;6.15;;;2.10;;
70075;SDS011;63241;51.056;3.698;2023-06-14T19:36:50;8.03;;;4.20;;
70075;SDS011;63241;51.056;3.698;2023-06-14T19:42:46;6.20;;;3.17;;
70075;SDS011;63241;51.056;3.698;2023-06-14T19:45:37;7.72;;;2.47;;
70075;SDS011;63241;51.056;3.698;2023-06-14T19:48:24;9.25;;;2.70;;
70075;SDS011;63241;51.056;3.698;2023-06-14T19:51:10;6.80;;;2.30;;
70075;SDS011;63241;51.056;3.698;2023-06-14T20:00:18;3.98;;;2.20;;
70075;SDS011;63241;51.056;3.698;2023-06-14T20:03:04;5.28;;;2.37;;
70075;SDS011;63241;51.056;3.698;2023-06-14T20:05:53;6.05;;;2.20;;
70075;SDS011;63241;51.056;3.698;2023-06-14T20:12:05;9.08;;;2.40;;
70075;SDS011;63241;51.056;3.698;2023-06-14T20:14:52;4.28;;;2.50;;
70075;SDS011;63241;51.056;3.698;2023-06-14T20:17:38;9.85;;;2.27;;
70075;SDS011;63241;51.056;3.698;2023-06-14T20:20:40;7.20;;;2.55;;
70075;SDS011;63241;51.056;3.698;2023-06-14T20:26:25;6.03;;;2.60;;
70075;SDS011;63241;51.056;3.698;2023-06-14T20:29:11;5.35;;;2.25;;
70075;SDS011;63241;51.056;3.698;2023-06-14T20:32:07;5.00;;;2.15;;
70075;SDS011;63241;51.056;3.698;2023-06-14T20:34:58;5.03;;;2.20;;
70075;SDS011;63241;51.056;3.698;2023-06-14T20:41:00;8.38;;;2.22;;
70075;SDS011;63241;51.056;3.698;2023-06-14T20:43:47;5.10;;;2.10;;
70075;SDS011;63241;51.056;3.698;2023-06-14T20:46:33;9.65;;;2.02;;
70075;SDS011;63241;51.056;3.698;2023-06-14T20:52:39;6.20;;;2.35;;
70075;SDS011;63241;51.056;3.698;2023-06-14T20:55:28;4.62;;;2.17;;
70075;SDS011;63241;51.056;3.698;2023-06-14T20:58:15;3.85;;;1.90;;
70075;SDS011;63241;51.056;3.698;2023-06-14T21:10:22;10.30;;;2.40;;
70075;SDS011;63241;51.056;3.698;2023-06-14T21:13:08;8.15;;;2.08;;
70075;SDS011;63241;51.056;3.698;2023-06-14T21:22:37;3.85;;;2.25;;
70075;SDS011;63241;51.056;3.698;2023-06-14T21:25:30;5.10;;;2.25;;
